createdAt,value
2018-02-15T00:00:07.322Z,35.25
2018-02-15T00:02:34.913Z,30.05
2018-02-15T00:05:02.513Z,34.17
2018-02-15T00:07:30.111Z,33.33
2018-02-15T00:09:58.454Z,40.10
2018-02-15T00:12:26.032Z,33.63
2018-02-15T00:14:53.711Z,32.40
2018-02-15T00:17:21.323Z,29.30
2018-02-15T00:19:48.889Z,35.50
2018-02-15T00:22:16.496Z,30.08
2018-02-15T00:24:44.851Z,32.00
2018-02-15T00:27:12.451Z,28.08
2018-02-15T00:29:40.786Z,35.03
2018-02-15T00:32:08.410Z,27.98
2018-02-15T00:34:36.011Z,26.60
2018-02-15T00:37:03.642Z,28.98
2018-02-15T00:39:31.200Z,25.52
2018-02-15T00:41:58.788Z,31.02
2018-02-15T00:44:26.398Z,33.50
2018-02-15T00:46:53.982Z,30.00
2018-02-15T00:49:21.589Z,27.13
2018-02-15T00:51:49.167Z,29.10
2018-02-15T00:54:17.528Z,30.35
2018-02-15T00:56:45.885Z,29.90
2018-02-15T00:59:13.501Z,30.35
2018-02-15T01:01:41.067Z,29.83
2018-02-15T01:04:08.636Z,30.35
2018-02-15T01:06:36.231Z,25.30
2018-02-15T01:09:03.816Z,26.05
2018-02-15T01:11:32.178Z,27.02
2018-02-15T01:13:59.748Z,29.27
2018-02-15T01:16:28.099Z,27.70
2018-02-15T01:18:55.704Z,31.15
2018-02-15T01:21:24.034Z,27.37
2018-02-15T01:23:51.641Z,26.35
2018-02-15T01:26:19.211Z,31.27
2018-02-15T01:28:46.832Z,25.50
2018-02-15T01:31:14.402Z,29.92
2018-02-15T01:33:42.008Z,22.62
2018-02-15T01:36:09.654Z,27.70
2018-02-15T01:38:37.239Z,25.15
2018-02-15T01:41:04.822Z,28.98
2018-02-15T01:43:32.405Z,29.45
2018-02-15T01:46:00.806Z,28.10
2018-02-15T01:48:28.430Z,25.35
2018-02-15T01:50:55.994Z,27.77
2018-02-15T01:53:23.618Z,22.05
2018-02-15T01:55:51.184Z,23.00
2018-02-15T01:58:18.781Z,24.83
2018-02-15T02:00:47.162Z,25.12
2018-02-15T02:03:15.582Z,24.67
2018-02-15T02:05:43.197Z,20.73
2018-02-15T02:08:11.590Z,20.95
2018-02-15T02:10:39.939Z,23.92
2018-02-15T02:13:07.536Z,27.52
2018-02-15T02:15:35.906Z,24.85
2018-02-15T02:18:04.252Z,26.17
2018-02-15T02:20:31.841Z,24.58
2018-02-15T02:23:00.191Z,22.33
2018-02-15T02:25:27.840Z,22.25
2018-02-15T02:27:55.534Z,22.25
2018-02-15T02:30:23.124Z,21.52
2018-02-15T02:32:50.763Z,22.45
2018-02-15T02:35:19.104Z,22.40
2018-02-15T02:37:46.754Z,23.40
2018-02-15T02:40:14.362Z,23.48
2018-02-15T02:42:42.709Z,21.77
2018-02-15T02:45:10.287Z,21.80
2018-02-15T02:47:37.863Z,22.30
2018-02-15T02:50:06.229Z,24.80
2018-02-15T02:52:33.798Z,32.42
2018-02-15T02:55:01.524Z,27.23
2018-02-15T02:57:29.895Z,24.17
2018-02-15T02:59:57.506Z,23.62
2018-02-15T03:02:25.838Z,21.70
2018-02-15T03:04:54.018Z,26.65
2018-02-15T03:07:22.349Z,22.67
2018-02-15T03:09:49.939Z,25.80
2018-02-15T03:12:17.535Z,25.37
2018-02-15T03:14:45.113Z,20.33
2018-02-15T03:17:13.502Z,23.65
2018-02-15T03:19:41.090Z,22.95
2018-02-15T03:22:08.691Z,24.40
2018-02-15T03:24:36.315Z,22.75
2018-02-15T03:27:03.906Z,23.45
2018-02-15T03:29:31.511Z,23.70
2018-02-15T03:31:59.083Z,28.95
2018-02-15T03:34:27.661Z,29.50
2018-02-15T03:36:55.244Z,23.48
2018-02-15T03:39:22.831Z,24.20
2018-02-15T03:41:50.415Z,23.50
2018-02-15T03:44:18.782Z,25.60
2018-02-15T03:46:47.139Z,27.30
2018-02-15T03:49:14.756Z,24.53
2018-02-15T03:51:42.328Z,25.90
2018-02-15T03:54:09.893Z,24.63
2018-02-15T03:56:37.476Z,22.40
2018-02-15T03:59:05.051Z,28.67
2018-02-15T04:01:32.622Z,25.25
2018-02-15T04:04:00.218Z,27.02
2018-02-15T04:06:27.813Z,24.77
2018-02-15T04:08:56.157Z,24.77
2018-02-15T04:11:23.765Z,25.83
2018-02-15T04:13:51.357Z,25.50
2018-02-15T04:16:19.706Z,23.30
2018-02-15T04:18:47.302Z,25.90
2018-02-15T04:21:14.883Z,22.87
2018-02-15T04:23:42.488Z,21.63
2018-02-15T04:26:10.055Z,19.87
2018-02-15T04:28:37.638Z,24.77
2018-02-15T04:31:05.979Z,22.43
2018-02-15T04:33:33.557Z,24.27
2018-02-15T04:36:01.155Z,19.70
2018-02-15T04:38:28.874Z,27.13
2018-02-15T04:40:56.470Z,18.87
2018-02-15T04:43:24.057Z,19.30
2018-02-15T04:45:51.637Z,19.93
2018-02-15T04:48:19.227Z,21.17
2018-02-15T04:50:47.562Z,21.70
2018-02-15T04:53:15.184Z,21.40
2018-02-15T04:55:43.528Z,23.60
2018-02-15T04:58:11.111Z,23.30
2018-02-15T05:00:39.522Z,20.17
2018-02-15T05:03:07.086Z,22.67
2018-02-15T05:05:34.690Z,23.40
2018-02-15T05:08:02.254Z,26.37
2018-02-15T05:10:29.874Z,21.97
2018-02-15T05:12:57.447Z,19.07
2018-02-15T05:15:25.026Z,19.87
2018-02-15T05:17:52.626Z,23.43
2018-02-15T05:20:20.198Z,21.60
2018-02-15T05:22:47.798Z,18.70
2018-02-15T05:25:15.378Z,20.90
2018-02-15T05:27:42.999Z,18.20
2018-02-15T05:30:10.561Z,19.77
2018-02-15T05:32:38.142Z,24.00
2018-02-15T05:35:05.732Z,18.20
2018-02-15T05:37:33.320Z,20.70
2018-02-15T05:40:00.899Z,20.07
2018-02-15T05:42:28.480Z,21.90
2018-02-15T05:44:56.069Z,24.00
2018-02-15T05:47:24.425Z,22.03
2018-02-15T05:49:52.060Z,17.40
2018-02-15T05:52:19.623Z,23.80
2018-02-15T05:54:47.226Z,17.03
2018-02-15T05:57:15.567Z,19.00
2018-02-15T05:59:43.157Z,21.53
2018-02-15T06:02:11.501Z,18.83
2018-02-15T06:04:39.123Z,19.70
2018-02-15T06:07:06.730Z,25.93
2018-02-15T06:09:34.367Z,32.20
2018-02-15T06:12:01.973Z,59.53
2018-02-15T06:14:29.623Z,56.50
2018-02-15T06:16:57.233Z,50.50
2018-02-15T06:19:24.852Z,28.13
2018-02-15T06:21:52.479Z,26.90
2018-02-15T06:24:20.870Z,22.37
2018-02-15T06:26:48.504Z,25.97
2018-02-15T06:29:16.192Z,20.30
2018-02-15T06:31:43.790Z,20.33
2018-02-15T06:34:12.163Z,20.97
2018-02-15T06:36:39.797Z,23.73
2018-02-15T06:39:07.597Z,22.57
2018-02-15T06:41:35.969Z,22.07
2018-02-15T06:44:03.595Z,26.90
2018-02-15T06:46:31.201Z,39.27
2018-02-15T06:48:59.628Z,22.70
2018-02-15T06:51:27.279Z,21.47
2018-02-15T06:53:54.919Z,23.80
2018-02-15T06:56:22.556Z,24.37
2018-02-15T06:58:50.173Z,24.83
2018-02-15T07:01:17.787Z,21.23
2018-02-15T07:03:46.171Z,21.13
2018-02-15T07:06:14.540Z,21.83
2018-02-15T07:08:42.171Z,19.70
2018-02-15T07:11:09.787Z,26.30
2018-02-15T07:13:37.394Z,20.37
2018-02-15T07:16:05.019Z,21.57
2018-02-15T07:18:32.616Z,28.40
2018-02-15T07:21:00.250Z,20.93
2018-02-15T07:23:27.860Z,32.37
2018-02-15T07:25:55.496Z,30.40
2018-02-15T07:28:23.113Z,21.53
2018-02-15T07:30:50.734Z,33.87
2018-02-15T07:33:18.340Z,30.90
2018-02-15T07:35:45.983Z,21.23
2018-02-15T07:38:14.347Z,29.87
2018-02-15T07:40:41.953Z,24.53
2018-02-15T07:43:09.588Z,28.33
2018-02-15T07:45:37.317Z,26.83
2018-02-15T07:48:05.736Z,24.90
2018-02-15T07:50:33.341Z,21.30
2018-02-15T07:53:00.965Z,23.47
2018-02-15T07:55:28.577Z,22.00
2018-02-15T07:57:56.244Z,19.97
2018-02-15T08:00:23.834Z,18.17
2018-02-15T08:02:52.200Z,20.03
2018-02-15T08:05:20.608Z,32.90
2018-02-15T08:07:48.224Z,24.30
2018-02-15T08:10:15.844Z,25.33
2018-02-15T08:12:44.481Z,22.07
2018-02-15T08:15:12.107Z,22.10
2018-02-15T08:17:39.749Z,21.20
2018-02-15T08:20:07.323Z,24.80
2018-02-15T08:22:34.943Z,23.80
2018-02-15T08:25:03.301Z,23.80
2018-02-15T08:27:30.924Z,23.13
2018-02-15T08:29:58.543Z,28.33
2018-02-15T08:32:26.147Z,22.30
2018-02-15T08:34:53.776Z,23.60
2018-02-15T08:37:21.413Z,21.00
2018-02-15T08:39:49.788Z,27.57
2018-02-15T08:42:18.207Z,26.07
2018-02-15T08:44:45.812Z,31.43
2018-02-15T08:47:13.429Z,25.80
2018-02-15T08:49:41.015Z,22.97
2018-02-15T08:52:08.624Z,29.23
2018-02-15T08:54:37.025Z,31.77
2018-02-15T08:57:04.639Z,27.70
2018-02-15T08:59:32.266Z,33.63
2018-02-15T09:01:59.854Z,25.70
2018-02-15T09:04:27.501Z,20.80
2018-02-15T09:06:55.121Z,23.67
2018-02-15T09:09:22.777Z,22.70
2018-02-15T09:11:51.145Z,22.67
2018-02-15T09:14:19.551Z,27.43
2018-02-15T09:16:47.166Z,21.30
2018-02-15T09:19:14.763Z,24.10
2018-02-15T09:21:42.397Z,18.40
2018-02-15T09:24:10.855Z,24.67
2018-02-15T09:26:39.274Z,25.47
2018-02-15T09:31:41.442Z,26.67
2018-02-15T09:34:09.860Z,21.10
2018-02-15T09:36:37.472Z,23.80
2018-02-15T09:39:05.108Z,25.63
2018-02-15T09:41:32.705Z,26.30
2018-02-15T09:44:01.123Z,26.00
2018-02-15T09:46:28.724Z,24.53
2018-02-15T09:48:56.327Z,23.23
2018-02-15T09:51:23.946Z,31.53
2018-02-15T09:53:51.553Z,22.40
2018-02-15T09:56:19.783Z,24.50
2018-02-15T09:58:47.407Z,21.57
2018-02-15T10:01:15.020Z,24.33
2018-02-15T10:03:42.642Z,19.80
2018-02-15T10:06:10.256Z,23.70
2018-02-15T10:08:37.904Z,21.50
2018-02-15T10:11:06.294Z,21.73
2018-02-15T10:13:34.705Z,20.97
2018-02-15T10:16:02.335Z,23.90
2018-02-15T10:18:30.717Z,22.93
2018-02-15T10:20:59.117Z,20.83
2018-02-15T10:23:26.884Z,26.47
2018-02-15T10:25:54.512Z,19.97
2018-02-15T10:28:22.880Z,20.43
2018-02-15T10:30:51.283Z,27.03
2018-02-15T10:33:18.897Z,22.43
2018-02-15T10:35:46.542Z,27.47
2018-02-15T10:38:14.197Z,22.20
2018-02-15T10:40:41.807Z,22.17
2018-02-15T10:43:10.211Z,21.97
2018-02-15T10:45:37.866Z,20.97
2018-02-15T10:48:06.282Z,20.07
2018-02-15T10:50:33.900Z,23.90
2018-02-15T10:53:02.342Z,19.87
2018-02-15T10:55:29.992Z,20.43
2018-02-15T10:57:57.616Z,17.97
2018-02-15T11:03:31.427Z,17.53
2018-02-15T11:06:00.621Z,17.50
2018-02-15T11:08:29.024Z,16.80
2018-02-15T11:10:56.649Z,15.90
2018-02-15T11:13:24.255Z,18.00
2018-02-15T11:15:51.887Z,19.30
2018-02-15T11:18:19.494Z,15.20
2018-02-15T11:20:47.132Z,18.10
2018-02-15T11:23:14.749Z,19.43
2018-02-15T11:25:42.385Z,15.97
2018-02-15T11:28:10.013Z,20.80
2018-02-15T11:30:37.647Z,17.07
2018-02-15T11:33:06.017Z,16.10
2018-02-15T11:35:34.416Z,16.70
2018-02-15T11:38:02.058Z,19.50
2018-02-15T11:40:29.697Z,18.10
2018-02-15T11:42:57.340Z,15.20
2018-02-15T11:45:24.960Z,19.23
2018-02-15T11:47:53.341Z,23.20
2018-02-15T11:50:21.747Z,22.87
2018-02-15T11:52:49.378Z,23.13
2018-02-15T11:55:17.761Z,22.03
2018-02-15T11:57:45.384Z,16.17
2018-02-15T12:00:13.048Z,17.30
2018-02-15T12:02:40.660Z,18.40
2018-02-15T12:05:08.265Z,17.30
2018-02-15T12:07:35.880Z,16.83
2018-02-15T12:10:03.524Z,19.47
2018-02-15T12:12:31.914Z,18.00
2018-02-15T12:14:59.607Z,21.63
2018-02-15T12:17:27.219Z,16.87
2018-02-15T12:19:55.586Z,18.53
2018-02-15T12:22:23.228Z,17.93
2018-02-15T12:24:50.819Z,16.43
2018-02-15T12:27:20.096Z,23.83
2018-02-15T12:29:47.757Z,17.60
2018-02-15T12:32:15.377Z,18.23
2018-02-15T12:34:42.997Z,18.63
2018-02-15T12:37:11.374Z,20.80
2018-02-15T12:39:38.995Z,20.20
2018-02-15T12:42:06.587Z,19.50
2018-02-15T12:44:34.214Z,18.80
2018-02-15T12:47:01.842Z,20.50
2018-02-15T12:49:29.453Z,19.47
2018-02-15T12:51:57.107Z,21.40
2018-02-15T12:54:24.766Z,22.60
2018-02-15T12:56:52.395Z,18.17
2018-02-15T12:59:20.019Z,17.27
2018-02-15T13:01:47.626Z,18.00
2018-02-15T13:04:20.862Z,26.43
2018-02-15T13:06:48.477Z,18.40
2018-02-15T13:09:16.096Z,21.73
2018-02-15T13:11:44.475Z,20.67
2018-02-15T13:14:12.852Z,20.57
2018-02-15T13:16:51.385Z,21.87
2018-02-15T13:19:31.578Z,22.83
2018-02-15T13:21:59.215Z,22.67
2018-02-15T13:24:27.220Z,23.70
2018-02-15T13:26:54.837Z,21.17
2018-02-15T13:29:22.466Z,25.53
2018-02-15T13:31:50.111Z,26.27
2018-02-15T13:34:17.726Z,22.00
2018-02-15T13:36:45.364Z,21.57
2018-02-15T13:39:13.755Z,22.80
2018-02-15T13:41:42.110Z,21.93
2018-02-15T13:44:09.745Z,25.30
2018-02-15T13:46:37.343Z,24.43
2018-02-15T13:49:05.776Z,24.30
2018-02-15T13:51:33.375Z,22.67
2018-02-15T13:54:00.974Z,24.90
2018-02-15T13:56:28.601Z,25.00
2018-02-15T13:58:56.975Z,25.63
2018-02-15T14:01:25.370Z,19.53
2018-02-15T14:03:53.779Z,21.43
2018-02-15T14:06:21.382Z,22.17
2018-02-15T14:08:49.017Z,21.20
2018-02-15T14:11:16.618Z,24.47
2018-02-15T14:13:44.251Z,26.03
2018-02-15T14:16:12.419Z,25.80
2018-02-15T14:18:40.066Z,27.30
2018-02-15T14:21:07.676Z,24.60
2018-02-15T14:23:35.348Z,25.53
2018-02-15T14:26:03.733Z,24.10
2018-02-15T14:28:32.167Z,23.97
2018-02-15T14:30:59.787Z,25.17
2018-02-15T14:33:27.412Z,22.13
2018-02-15T14:35:55.050Z,22.47
2018-02-15T14:38:22.649Z,28.80
2018-02-15T14:40:51.039Z,25.93
2018-02-15T14:43:19.407Z,22.20
2018-02-15T14:45:47.812Z,24.50
2018-02-15T14:48:15.424Z,23.60
2018-02-15T14:50:43.111Z,25.80
2018-02-15T14:53:10.765Z,22.93
2018-02-15T14:55:39.178Z,22.90
2018-02-15T14:58:06.786Z,24.80
2018-02-15T15:00:34.405Z,28.77
2018-02-15T15:03:02.022Z,26.10
2018-02-15T15:05:29.615Z,29.57
2018-02-15T15:07:57.232Z,31.63
2018-02-15T15:10:24.970Z,30.43
2018-02-15T15:12:52.579Z,32.17
2018-02-15T15:15:20.967Z,32.70
2018-02-15T15:17:49.335Z,31.53
2018-02-15T15:20:17.739Z,29.73
2018-02-15T15:22:45.446Z,33.97
2018-02-15T15:25:13.061Z,31.60
2018-02-15T15:27:40.686Z,31.43
2018-02-15T15:30:08.628Z,35.00
2018-02-15T15:32:36.266Z,28.00
2018-02-15T15:35:03.883Z,32.60
2018-02-15T15:37:32.206Z,31.00
2018-02-15T15:39:59.808Z,25.30
2018-02-15T15:42:27.452Z,31.87
2018-02-15T15:44:55.085Z,33.40
2018-02-15T15:47:22.702Z,33.67
2018-02-15T15:49:51.204Z,36.30
2018-02-15T15:52:18.817Z,38.23
2018-02-15T15:54:46.422Z,36.87
2018-02-15T15:57:14.855Z,37.30
2018-02-15T15:59:42.480Z,32.13
2018-02-15T16:02:10.108Z,34.77
2018-02-15T16:04:37.763Z,36.53
2018-02-15T16:07:05.409Z,41.07
2018-02-15T16:09:33.018Z,34.17
2018-02-15T16:12:00.669Z,30.77
2018-02-15T16:14:28.308Z,33.67
2018-02-15T16:16:55.927Z,35.80
2018-02-15T16:19:23.601Z,39.97
2018-02-15T16:21:51.231Z,45.00
2018-02-15T16:24:20.786Z,42.63
2018-02-15T16:26:48.418Z,33.60
2018-02-15T16:29:16.066Z,36.03
2018-02-15T16:31:43.723Z,28.53
2018-02-15T16:34:11.348Z,39.97
2018-02-15T16:36:39.724Z,35.90
2018-02-15T16:39:08.323Z,38.30
2018-02-15T16:41:36.735Z,38.67
2018-02-15T16:44:04.424Z,35.77
2018-02-15T16:46:32.032Z,40.63
2018-02-15T16:49:00.435Z,40.90
2018-02-15T16:51:28.087Z,42.07
2018-02-15T16:53:56.475Z,38.00
2018-02-15T16:56:24.109Z,43.83
2018-02-15T16:58:53.391Z,35.23
2018-02-15T17:01:21.016Z,50.30
2018-02-15T17:03:48.619Z,40.13
2018-02-15T17:06:17.025Z,46.53
2018-02-15T17:08:44.631Z,40.37
2018-02-15T17:11:12.273Z,37.87
2018-02-15T17:13:39.872Z,41.63
2018-02-15T17:16:07.604Z,35.87
2018-02-15T17:18:35.260Z,38.23
2018-02-15T17:21:03.878Z,39.27
2018-02-15T17:23:32.095Z,41.90
2018-02-15T17:26:00.663Z,41.90
2018-02-15T17:28:29.018Z,39.37
2018-02-15T17:30:56.635Z,37.63
2018-02-15T17:33:24.253Z,31.97
2018-02-15T17:35:52.463Z,31.40
2018-02-15T17:38:20.065Z,39.93
2018-02-15T17:40:47.701Z,37.23
2018-02-15T17:43:15.356Z,40.70
2018-02-15T17:45:43.033Z,42.10
2018-02-15T17:48:10.659Z,40.33
2018-02-15T17:50:38.304Z,85.40
2018-02-15T17:53:06.727Z,80.50
2018-02-15T17:55:34.319Z,92.93
2018-02-15T17:58:01.942Z,92.67
2018-02-15T18:00:29.538Z,80.93
2018-02-15T18:02:57.173Z,82.87
2018-02-15T18:05:24.774Z,71.10
2018-02-15T18:07:53.156Z,65.13
2018-02-15T18:10:21.607Z,63.90
2018-02-15T18:12:49.225Z,51.50
2018-02-15T18:15:16.849Z,45.60
2018-02-15T18:17:44.670Z,61.27
2018-02-15T18:20:12.314Z,61.03
2018-02-15T18:22:39.928Z,56.00
2018-02-15T18:25:07.590Z,46.83
2018-02-15T18:27:35.190Z,37.53
2018-02-15T18:30:02.798Z,46.07
2018-02-15T18:32:30.429Z,47.10
2018-02-15T18:34:58.029Z,44.40
2018-02-15T18:37:25.659Z,46.30
2018-02-15T18:39:53.264Z,45.00
2018-02-15T18:42:20.878Z,45.50
2018-02-15T18:44:48.475Z,39.47
2018-02-15T18:47:16.096Z,39.40
2018-02-15T18:49:43.732Z,37.73
2018-02-15T18:52:12.106Z,30.40
2018-02-15T18:54:40.510Z,42.90
2018-02-15T18:57:08.115Z,42.20
2018-02-15T18:59:35.772Z,39.50
2018-02-15T19:02:03.399Z,46.87
2018-02-15T19:04:31.015Z,47.33
2018-02-15T19:07:00.156Z,41.57
2018-02-15T19:09:27.812Z,37.80
2018-02-15T19:11:55.465Z,36.83
2018-02-15T19:14:23.941Z,42.87
2018-02-15T19:16:51.571Z,41.27
2018-02-15T19:19:19.179Z,43.33
2018-02-15T19:21:46.802Z,40.97
2018-02-15T19:24:15.190Z,41.93
2018-02-15T19:26:43.589Z,43.73
2018-02-15T19:29:11.220Z,39.93
2018-02-15T19:31:39.588Z,41.43
2018-02-15T19:34:07.224Z,40.83
2018-02-15T19:36:34.873Z,38.53
2018-02-15T19:39:02.488Z,39.43
2018-02-15T19:41:30.889Z,41.60
2018-02-15T19:43:58.492Z,43.40
2018-02-15T19:46:26.117Z,35.60
2018-02-15T19:48:53.721Z,41.40
2018-02-15T19:51:21.388Z,39.53
2018-02-15T19:53:48.995Z,43.33
2018-02-15T19:56:16.645Z,42.27
2018-02-15T19:58:44.261Z,43.40
2018-02-15T20:01:11.882Z,38.30
2018-02-15T20:03:39.509Z,41.80
2018-02-15T20:06:07.889Z,41.13
2018-02-15T20:08:37.217Z,39.43
2018-02-15T20:11:04.922Z,38.77
2018-02-15T20:13:32.616Z,49.30
2018-02-15T20:16:01.012Z,45.97
2018-02-15T20:18:28.652Z,39.63
2018-02-15T20:20:57.040Z,49.20
2018-02-15T20:23:25.418Z,45.83
2018-02-15T20:25:59.529Z,55.67
2018-02-15T20:28:27.930Z,42.03
2018-02-15T20:30:55.543Z,39.33
2018-02-15T20:33:23.202Z,45.90
2018-02-15T20:35:50.815Z,37.80
2018-02-15T20:38:24.189Z,37.63
2018-02-15T20:40:52.585Z,42.40
2018-02-15T20:43:20.239Z,41.37
2018-02-15T20:45:48.649Z,46.60
2018-02-15T20:48:16.302Z,43.53
2018-02-15T20:50:49.484Z,42.07
2018-02-15T20:53:22.874Z,42.50
2018-02-15T20:55:50.483Z,41.83
2018-02-15T20:58:18.127Z,46.87
2018-02-15T21:00:45.730Z,39.60
2018-02-15T21:03:13.363Z,44.40
2018-02-15T21:05:41.978Z,36.60
2018-02-15T21:08:09.615Z,38.90
2018-02-15T21:10:37.260Z,42.27
2018-02-15T21:13:04.867Z,66.90
2018-02-15T21:15:33.280Z,91.63
2018-02-15T21:18:00.883Z,62.13
2018-02-15T21:20:28.524Z,62.13
2018-02-15T21:22:56.157Z,51.40
2018-02-15T21:25:23.763Z,58.27
2018-02-15T21:27:51.415Z,66.57
2018-02-15T21:30:19.795Z,67.80
2018-02-15T21:32:47.442Z,39.93
2018-02-15T21:35:15.866Z,43.73
2018-02-15T21:37:44.280Z,42.50
2018-02-15T21:40:11.879Z,39.17
2018-02-15T21:42:39.488Z,35.50
2018-02-15T21:45:07.114Z,37.97
2018-02-15T21:47:34.772Z,40.73
2018-02-15T21:50:02.372Z,46.00
2018-02-15T21:52:29.993Z,43.70
2018-02-15T21:54:57.648Z,46.10
2018-02-15T21:57:25.243Z,46.13
2018-02-15T21:59:53.663Z,46.27
2018-02-15T22:02:21.277Z,45.10
2018-02-15T22:04:49.659Z,43.93
2018-02-15T22:07:18.017Z,43.20
2018-02-15T22:09:45.660Z,43.23
2018-02-15T22:12:13.283Z,49.57
2018-02-15T22:14:40.894Z,42.23
2018-02-15T22:17:08.532Z,42.33
2018-02-15T22:19:36.100Z,38.80
2018-02-15T22:22:03.686Z,38.20
2018-02-15T22:24:31.283Z,36.90
2018-02-15T22:26:58.882Z,42.50
2018-02-15T22:29:26.454Z,39.27
2018-02-15T22:31:54.022Z,34.50
2018-02-15T22:34:21.614Z,33.10
2018-02-15T22:36:49.182Z,46.03
2018-02-15T22:39:16.823Z,40.80
2018-02-15T22:41:45.154Z,62.03
2018-02-15T22:44:12.744Z,60.93
2018-02-15T22:46:40.330Z,45.10
2018-02-15T22:49:08.698Z,42.20
2018-02-15T22:51:37.030Z,79.60
2018-02-15T22:54:04.610Z,80.70
2018-02-15T22:56:32.999Z,46.20
2018-02-15T22:59:00.586Z,48.27
2018-02-15T23:01:28.916Z,50.33
2018-02-15T23:03:56.538Z,45.47
2018-02-15T23:06:24.122Z,42.60
2018-02-15T23:08:51.677Z,47.37
2018-02-15T23:11:19.273Z,42.77
2018-02-15T23:13:46.882Z,35.83
2018-02-15T23:16:14.483Z,49.03
2018-02-15T23:18:42.076Z,62.27
2018-02-15T23:21:10.425Z,162.93
2018-02-15T23:23:38.036Z,132.03
2018-02-15T23:26:05.647Z,71.43
2018-02-15T23:28:33.235Z,59.53
2018-02-15T23:31:01.590Z,54.87
2018-02-15T23:33:30.200Z,54.63
2018-02-15T23:35:58.556Z,53.07
2018-02-15T23:38:26.127Z,53.60
2018-02-15T23:40:54.511Z,38.87
2018-02-15T23:43:22.891Z,32.33
2018-02-15T23:45:51.227Z,36.20
2018-02-15T23:48:18.847Z,37.10
2018-02-15T23:50:46.488Z,37.10
2018-02-15T23:53:14.836Z,49.20
2018-02-15T23:55:42.406Z,57.23
2018-02-15T23:58:10.018Z,39.67
